createdAt,value
2023-05-04T00:01:18.604Z,7.59
2023-05-04T00:04:02.094Z,7.58
2023-05-04T00:06:45.339Z,7.58
2023-05-04T00:09:28.390Z,7.56
2023-05-04T00:12:12.888Z,7.55
2023-05-04T00:14:55.977Z,7.55
2023-05-04T00:17:39.912Z,7.54
2023-05-04T00:20:22.977Z,7.53
2023-05-04T00:23:06.493Z,7.53
2023-05-04T00:25:49.851Z,7.51
2023-05-04T00:28:34.308Z,7.49
2023-05-04T00:31:19.328Z,7.47
2023-05-04T00:34:02.537Z,7.43
2023-05-04T00:36:46.507Z,7.41
2023-05-04T00:39:30.004Z,7.39
2023-05-04T00:42:13.055Z,7.37
2023-05-04T00:44:57.439Z,7.37
2023-05-04T00:47:40.613Z,7.34
2023-05-04T00:50:23.780Z,7.33
2023-05-04T00:53:10.344Z,7.33
2023-05-04T00:55:53.505Z,7.29
2023-05-04T00:58:36.975Z,7.26
2023-05-04T01:01:21.875Z,7.23
2023-05-04T01:04:05.502Z,7.21
2023-05-04T01:06:53.204Z,7.19
2023-05-04T01:09:48.428Z,7.17
2023-05-04T01:12:37.019Z,7.13
2023-05-04T01:15:21.648Z,7.12
2023-05-04T01:18:06.154Z,7.10
2023-05-04T01:20:49.671Z,7.11
2023-05-04T01:23:34.319Z,7.10
2023-05-04T01:26:20.037Z,7.05
2023-05-04T01:29:10.203Z,6.99
2023-05-04T01:31:54.648Z,6.97
2023-05-04T01:34:41.066Z,6.95
2023-05-04T01:37:24.191Z,6.95
2023-05-04T01:40:10.379Z,6.97
2023-05-04T01:42:53.555Z,6.95
2023-05-04T01:45:36.717Z,6.98
2023-05-04T01:48:19.772Z,6.98
2023-05-04T01:51:03.258Z,6.98
2023-05-04T01:53:46.595Z,7.01
2023-05-04T01:56:31.703Z,6.96
2023-05-04T01:59:14.736Z,7.01
2023-05-04T02:01:57.867Z,6.98
2023-05-04T02:04:42.492Z,6.98
2023-05-04T02:07:25.947Z,6.98
2023-05-04T02:10:10.335Z,6.99
2023-05-04T02:12:55.884Z,6.94
2023-05-04T02:15:39.733Z,6.80
2023-05-04T02:18:22.844Z,6.90
2023-05-04T02:21:05.984Z,6.90
2023-05-04T02:23:49.080Z,6.94
2023-05-04T02:26:32.916Z,6.95
2023-05-04T02:29:17.360Z,6.93
2023-05-04T02:32:00.945Z,6.90
2023-05-04T02:34:44.396Z,6.88
2023-05-04T02:37:27.396Z,6.86
2023-05-04T02:40:11.609Z,6.82
2023-05-04T02:42:54.481Z,6.78
2023-05-04T02:45:38.956Z,6.76
2023-05-04T02:48:21.945Z,6.72
2023-05-04T02:51:05.295Z,6.71
2023-05-04T02:53:48.288Z,6.69
2023-05-04T02:56:31.205Z,6.71
2023-05-04T02:59:14.170Z,6.69
2023-05-04T03:01:58.499Z,6.70
2023-05-04T03:04:41.637Z,6.67
2023-05-04T03:07:24.679Z,6.66
2023-05-04T03:10:09.744Z,6.66
2023-05-04T03:12:52.728Z,6.65
2023-05-04T03:15:35.836Z,6.63
2023-05-04T03:18:20.107Z,6.62
2023-05-04T03:21:05.143Z,6.58
2023-05-04T03:23:48.972Z,6.58
2023-05-04T03:26:32.672Z,6.56
2023-05-04T03:29:15.678Z,6.54
2023-05-04T03:31:58.783Z,6.54
2023-05-04T03:34:43.256Z,6.51
2023-05-04T03:37:26.323Z,6.51
2023-05-04T03:40:09.906Z,6.52
2023-05-04T03:42:53.352Z,6.49
2023-05-04T03:45:37.966Z,6.49
2023-05-04T03:48:20.901Z,6.46
2023-05-04T03:51:06.422Z,6.48
2023-05-04T03:53:49.457Z,6.47
2023-05-04T03:56:33.887Z,6.43
2023-05-04T03:59:16.812Z,6.44
2023-05-04T04:02:01.323Z,6.43
2023-05-04T04:04:44.541Z,6.43
2023-05-04T04:07:29.057Z,6.42
2023-05-04T04:10:12.127Z,6.42
2023-05-04T04:12:55.287Z,6.44
2023-05-04T04:15:38.270Z,6.45
2023-05-04T04:18:21.313Z,6.49
2023-05-04T04:21:04.439Z,6.51
2023-05-04T04:23:48.813Z,6.49
2023-05-04T04:26:31.787Z,6.50
2023-05-04T04:29:14.684Z,6.51
2023-05-04T04:31:57.708Z,6.50
2023-05-04T04:34:40.773Z,6.51
2023-05-04T04:37:24.216Z,6.54
2023-05-04T04:40:10.409Z,6.55
2023-05-04T04:42:53.462Z,6.60
2023-05-04T04:45:36.749Z,6.61
2023-05-04T04:48:21.920Z,6.63
2023-05-04T04:51:05.755Z,6.66
2023-05-04T04:53:48.616Z,6.71
2023-05-04T04:56:33.352Z,6.75
2023-05-04T04:59:17.355Z,6.79
2023-05-04T05:02:00.678Z,6.79
2023-05-04T05:04:43.656Z,6.91
2023-05-04T05:07:27.132Z,6.98
2023-05-04T05:10:10.955Z,7.02
2023-05-04T05:12:55.562Z,7.08
2023-05-04T05:15:38.565Z,7.13
2023-05-04T05:18:21.509Z,7.17
2023-05-04T05:21:05.379Z,7.24
2023-05-04T05:23:48.298Z,7.34
2023-05-04T05:26:31.226Z,7.45
2023-05-04T05:29:15.719Z,7.52
2023-05-04T05:31:59.391Z,7.58
2023-05-04T05:34:42.496Z,7.65
2023-05-04T05:37:25.562Z,7.77
2023-05-04T05:40:09.988Z,7.84
2023-05-04T05:42:53.279Z,7.87
2023-05-04T05:45:37.564Z,7.91
2023-05-04T05:48:21.092Z,7.98
2023-05-04T05:51:04.163Z,8.06
2023-05-04T05:53:47.160Z,8.14
2023-05-04T05:56:30.060Z,8.14
2023-05-04T05:59:12.942Z,8.33
2023-05-04T06:01:57.468Z,8.46
2023-05-04T06:04:40.411Z,8.56
2023-05-04T06:07:23.811Z,8.64
2023-05-04T06:10:07.801Z,8.71
2023-05-04T06:12:51.405Z,8.74
2023-05-04T06:15:34.667Z,8.88
2023-05-04T06:18:20.185Z,9.03
2023-05-04T06:21:04.078Z,9.12
2023-05-04T06:23:47.773Z,9.22
2023-05-04T06:26:30.988Z,9.31
2023-05-04T06:29:13.956Z,9.33
2023-05-04T06:31:57.028Z,9.41
2023-05-04T06:34:41.404Z,9.54
2023-05-04T06:37:24.516Z,9.64
2023-05-04T06:40:09.571Z,9.76
2023-05-04T06:42:52.669Z,9.80
2023-05-04T06:45:36.179Z,9.97
2023-05-04T06:48:19.151Z,10.03
2023-05-04T06:51:03.495Z,10.19
2023-05-04T06:53:46.460Z,10.25
2023-05-04T06:56:29.394Z,10.36
2023-05-04T06:59:13.310Z,10.51
2023-05-04T07:01:56.386Z,10.62
2023-05-04T07:04:39.411Z,10.72
2023-05-04T07:07:24.022Z,10.83
2023-05-04T07:10:08.411Z,10.97
2023-05-04T07:12:51.404Z,11.02
2023-05-04T07:15:35.143Z,10.99
2023-05-04T07:18:18.406Z,11.04
2023-05-04T07:21:16.645Z,10.96
2023-05-04T07:24:08.151Z,11.08
2023-05-04T07:26:50.904Z,11.22
2023-05-04T07:29:34.049Z,11.40
2023-05-04T07:32:17.086Z,11.59
2023-05-04T07:35:00.068Z,11.77
2023-05-04T07:37:43.297Z,11.98
2023-05-04T07:40:27.766Z,12.09
2023-05-04T07:43:10.849Z,12.18
2023-05-04T07:45:54.843Z,12.24
2023-05-04T07:48:37.787Z,12.37
2023-05-04T07:51:20.706Z,12.50
2023-05-04T07:54:03.766Z,12.63
2023-05-04T07:56:48.021Z,12.78
2023-05-04T07:59:31.440Z,12.84
2023-05-04T08:02:15.249Z,12.76
2023-05-04T08:04:58.220Z,12.89
2023-05-04T08:07:41.241Z,12.98
2023-05-04T08:10:24.199Z,12.94
2023-05-04T08:13:08.529Z,12.94
2023-05-04T08:15:51.502Z,12.97
2023-05-04T08:18:35.425Z,12.90
2023-05-04T08:21:18.351Z,13.06
2023-05-04T08:24:02.166Z,13.05
2023-05-04T08:26:47.384Z,13.25
2023-05-04T08:29:40.153Z,13.39
2023-05-04T08:32:23.063Z,13.51
2023-05-04T08:35:06.980Z,13.46
2023-05-04T08:37:50.440Z,13.56
2023-05-04T08:40:34.450Z,13.66
2023-05-04T08:43:17.962Z,13.70
2023-05-04T08:46:05.265Z,13.79
2023-05-04T08:48:48.415Z,13.91
2023-05-04T08:51:36.349Z,14.04
2023-05-04T08:54:20.207Z,14.13
2023-05-04T08:57:05.714Z,14.23
2023-05-04T08:59:52.200Z,14.35
2023-05-04T09:02:38.417Z,14.48
2023-05-04T09:05:22.074Z,14.66
2023-05-04T09:08:05.659Z,14.79
2023-05-04T09:10:49.464Z,14.99
2023-05-04T09:13:32.758Z,15.25
2023-05-04T09:16:16.438Z,15.43
2023-05-04T09:19:00.858Z,15.14
2023-05-04T09:21:44.107Z,15.59
2023-05-04T09:24:28.277Z,15.92
2023-05-04T09:27:12.488Z,16.19
2023-05-04T09:29:55.633Z,16.45
2023-05-04T09:32:47.556Z,16.58
2023-05-04T09:35:34.201Z,16.40
2023-05-04T09:38:27.393Z,16.69
2023-05-04T09:41:10.434Z,16.77
2023-05-04T09:43:53.394Z,16.91
2023-05-04T09:46:36.763Z,17.04
2023-05-04T09:49:21.069Z,16.98
2023-05-04T09:52:07.107Z,17.14
2023-05-04T09:54:51.340Z,17.21
2023-05-04T09:57:35.652Z,17.49
2023-05-04T10:00:19.841Z,17.50
2023-05-04T10:03:04.857Z,17.34
2023-05-04T10:05:49.114Z,17.46
2023-05-04T10:08:33.932Z,17.81
2023-05-04T10:11:19.211Z,17.94
2023-05-04T10:14:02.293Z,18.32
2023-05-04T10:16:54.542Z,18.45
2023-05-04T10:19:53.944Z,18.64
2023-05-04T10:23:03.699Z,18.68
2023-05-04T10:26:08.960Z,19.00
2023-05-04T10:29:05.017Z,19.15
2023-05-04T10:31:48.268Z,19.37
2023-05-04T10:34:32.469Z,19.56
2023-05-04T10:37:19.852Z,19.72
2023-05-04T10:40:02.849Z,19.94
2023-05-04T10:42:47.508Z,20.13
2023-05-04T10:45:37.971Z,20.33
2023-05-04T10:48:21.487Z,20.37
2023-05-04T10:51:04.622Z,20.41
2023-05-04T10:53:48.196Z,20.55
2023-05-04T10:56:31.201Z,20.45
2023-05-04T10:59:16.018Z,20.30
2023-05-04T11:01:59.079Z,20.52
2023-05-04T11:04:42.144Z,20.71
2023-05-04T11:07:34.375Z,20.81
2023-05-04T11:10:24.907Z,20.92
2023-05-04T11:13:12.854Z,20.89
2023-05-04T11:15:57.258Z,20.81
2023-05-04T11:18:41.234Z,21.00
2023-05-04T11:21:28.366Z,21.31
2023-05-04T11:24:12.707Z,21.61
2023-05-04T11:26:55.812Z,21.43
2023-05-04T11:29:38.810Z,21.53
2023-05-04T11:32:24.114Z,21.54
2023-05-04T11:35:10.754Z,21.65
2023-05-04T11:37:53.783Z,21.55
2023-05-04T11:40:41.145Z,21.66
2023-05-04T11:43:24.596Z,21.40
2023-05-04T11:46:08.857Z,21.55
2023-05-04T11:48:53.565Z,21.63
2023-05-04T11:51:36.417Z,21.83
2023-05-04T11:54:23.535Z,21.96
2023-05-04T11:57:06.425Z,22.08
2023-05-04T11:59:49.790Z,21.70
2023-05-04T12:02:32.991Z,21.24
2023-05-04T12:05:17.371Z,21.43
2023-05-04T12:08:02.525Z,21.34
2023-05-04T12:10:46.248Z,21.62
2023-05-04T12:13:29.467Z,21.96
2023-05-04T12:16:13.410Z,22.17
2023-05-04T12:19:04.639Z,21.80
2023-05-04T12:21:53.074Z,21.90
2023-05-04T12:24:36.669Z,22.01
2023-05-04T12:27:19.625Z,22.21
2023-05-04T12:30:02.581Z,21.84
2023-05-04T12:32:46.039Z,22.21
2023-05-04T12:35:28.984Z,22.35
2023-05-04T12:38:13.393Z,22.53
2023-05-04T12:40:58.981Z,22.63
2023-05-04T12:43:43.078Z,22.34
2023-05-04T12:46:26.115Z,22.44
2023-05-04T12:49:11.572Z,22.73
2023-05-04T12:51:55.332Z,22.94
2023-05-04T12:54:39.688Z,23.21
2023-05-04T12:57:22.647Z,23.46
2023-05-04T13:00:09.606Z,23.46
2023-05-04T13:02:53.592Z,23.57
2023-05-04T13:05:36.621Z,23.00
2023-05-04T13:08:20.596Z,22.38
2023-05-04T13:11:04.904Z,22.61
2023-05-04T13:13:47.938Z,22.88
2023-05-04T13:16:31.336Z,23.15
2023-05-04T13:19:14.329Z,23.24
2023-05-04T13:21:57.283Z,23.12
2023-05-04T13:24:40.767Z,22.90
2023-05-04T13:27:25.077Z,22.84
2023-05-04T13:30:10.824Z,22.90
2023-05-04T13:32:53.848Z,22.85
2023-05-04T13:35:37.449Z,23.05
2023-05-04T13:38:20.468Z,23.02
2023-05-04T13:41:04.303Z,23.08
2023-05-04T13:43:49.473Z,22.83
2023-05-04T13:46:32.461Z,22.87
2023-05-04T13:49:15.719Z,23.30
2023-05-04T13:51:59.499Z,23.13
2023-05-04T13:54:42.565Z,23.01
2023-05-04T13:57:26.999Z,22.95
2023-05-04T14:00:14.328Z,23.19
2023-05-04T14:02:58.356Z,23.42
2023-05-04T14:05:41.669Z,23.49
2023-05-04T14:08:24.654Z,23.64
2023-05-04T14:11:07.580Z,23.59
2023-05-04T14:13:52.623Z,23.62
2023-05-04T14:16:37.666Z,23.46
2023-05-04T14:19:20.763Z,23.66
2023-05-04T14:22:03.792Z,23.34
2023-05-04T14:24:47.604Z,23.64
2023-05-04T14:27:34.435Z,23.81
2023-05-04T14:30:17.784Z,23.99
2023-05-04T14:33:03.841Z,24.09
2023-05-04T14:35:48.300Z,24.32
2023-05-04T14:38:32.735Z,24.50
2023-05-04T14:41:15.677Z,24.70
2023-05-04T14:43:58.609Z,24.73
2023-05-04T14:46:41.547Z,24.59
2023-05-04T14:49:36.494Z,24.69
2023-05-04T14:52:20.293Z,24.47
2023-05-04T14:55:04.475Z,24.29
2023-05-04T14:57:47.500Z,23.96
2023-05-04T15:00:30.404Z,23.67
2023-05-04T15:03:13.481Z,23.53
2023-05-04T15:05:58.439Z,23.45
2023-05-04T15:08:41.344Z,23.39
2023-05-04T15:11:24.656Z,23.40
2023-05-04T15:14:07.595Z,23.49
2023-05-04T15:16:50.582Z,23.51
2023-05-04T15:19:33.546Z,23.43
2023-05-04T15:22:17.839Z,23.35
2023-05-04T15:25:01.796Z,23.03
2023-05-04T15:27:44.975Z,22.68
2023-05-04T15:30:27.867Z,22.43
2023-05-04T15:33:10.800Z,22.33
2023-05-04T15:35:54.191Z,22.23
2023-05-04T15:38:38.548Z,22.14
2023-05-04T15:41:21.664Z,21.71
2023-05-04T15:44:07.684Z,21.55
2023-05-04T15:46:50.828Z,21.35
2023-05-04T15:49:33.813Z,20.92
2023-05-04T15:52:16.780Z,20.78
2023-05-04T15:55:09.492Z,20.63
2023-05-04T15:58:05.720Z,20.63
2023-05-04T16:00:48.692Z,20.65
2023-05-04T16:03:32.334Z,20.60
2023-05-04T16:06:17.964Z,20.58
2023-05-04T16:09:01.313Z,20.37
2023-05-04T16:11:45.989Z,20.22
2023-05-04T16:14:28.844Z,20.08
2023-05-04T16:17:12.387Z,19.87
2023-05-04T16:19:55.305Z,19.74
2023-05-04T16:22:38.880Z,19.59
2023-05-04T16:25:21.996Z,19.51
2023-05-04T16:28:06.267Z,19.41
2023-05-04T16:30:50.720Z,19.31
2023-05-04T16:33:33.696Z,19.19
2023-05-04T16:36:17.897Z,19.05
2023-05-04T16:39:01.012Z,18.97
2023-05-04T16:41:46.701Z,18.88
2023-05-04T16:44:32.324Z,18.75
2023-05-04T16:47:15.403Z,18.73
2023-05-04T16:49:58.436Z,18.59
2023-05-04T16:52:41.587Z,18.52
2023-05-04T16:55:26.682Z,18.49
2023-05-04T16:58:10.419Z,18.46
2023-05-04T17:00:55.405Z,18.40
2023-05-04T17:03:38.510Z,18.34
2023-05-04T17:06:21.835Z,18.21
2023-05-04T17:09:06.057Z,18.20
2023-05-04T17:11:49.417Z,18.19
2023-05-04T17:14:32.391Z,18.13
2023-05-04T17:17:16.631Z,18.12
2023-05-04T17:19:59.538Z,18.05
2023-05-04T17:22:42.916Z,17.96
2023-05-04T17:25:26.640Z,17.95
2023-05-04T17:28:10.437Z,17.92
2023-05-04T17:30:53.345Z,17.88
2023-05-04T17:33:37.675Z,17.79
2023-05-04T17:36:20.763Z,17.79
2023-05-04T17:39:04.035Z,17.77
2023-05-04T17:41:48.667Z,17.75
2023-05-04T17:44:32.844Z,17.71
2023-05-04T17:47:16.447Z,17.71
2023-05-04T17:50:00.737Z,17.67
2023-05-04T17:52:44.489Z,17.60
2023-05-04T17:55:27.795Z,17.52
2023-05-04T17:58:11.416Z,17.46
2023-05-04T18:00:54.328Z,17.38
2023-05-04T18:03:37.656Z,17.30
2023-05-04T18:06:22.046Z,17.25
2023-05-04T18:09:05.416Z,17.16
2023-05-04T18:11:48.487Z,17.06
2023-05-04T18:14:31.516Z,16.97
2023-05-04T18:17:14.507Z,16.89
2023-05-04T18:19:57.728Z,16.82
2023-05-04T18:22:42.089Z,16.74
2023-05-04T18:25:25.293Z,16.67
2023-05-04T18:28:08.626Z,16.62
2023-05-04T18:30:51.558Z,16.55
2023-05-04T18:33:35.740Z,16.49
2023-05-04T18:36:19.597Z,16.43
2023-05-04T18:39:04.130Z,16.35
2023-05-04T18:41:47.258Z,16.30
2023-05-04T18:44:34.390Z,16.22
2023-05-04T18:47:17.337Z,16.16
2023-05-04T18:50:00.760Z,16.10
2023-05-04T18:52:43.720Z,16.05
2023-05-04T18:55:28.025Z,16.01
2023-05-04T18:58:11.145Z,15.94
2023-05-04T19:00:54.560Z,15.86
2023-05-04T19:03:37.517Z,15.79
2023-05-04T19:06:20.470Z,15.74
2023-05-04T19:09:03.431Z,15.68
2023-05-04T19:11:47.847Z,15.63
2023-05-04T19:14:31.984Z,15.53
2023-05-04T19:17:15.735Z,15.50
2023-05-04T19:19:58.794Z,15.44
2023-05-04T19:22:42.492Z,15.36
2023-05-04T19:25:34.142Z,15.28
2023-05-04T19:28:19.751Z,15.21
2023-05-04T19:31:03.807Z,15.11
2023-05-04T19:33:48.881Z,15.03
2023-05-04T19:36:32.542Z,14.95
2023-05-04T19:39:16.743Z,14.84
2023-05-04T19:41:59.731Z,14.73
2023-05-04T19:44:43.991Z,14.64
2023-05-04T19:47:28.859Z,14.58
2023-05-04T19:50:14.763Z,14.54
2023-05-04T19:52:58.453Z,14.46
2023-05-04T19:55:41.540Z,14.40
2023-05-04T19:58:26.126Z,14.37
2023-05-04T20:01:10.683Z,14.32
2023-05-04T20:03:53.791Z,14.26
2023-05-04T20:06:37.623Z,14.19
2023-05-04T20:09:20.690Z,14.09
2023-05-04T20:12:04.529Z,14.05
2023-05-04T20:14:47.416Z,13.98
2023-05-04T20:17:31.826Z,13.88
2023-05-04T20:20:19.993Z,13.79
2023-05-04T20:23:04.094Z,13.71
2023-05-04T20:25:47.235Z,13.67
2023-05-04T20:28:30.171Z,13.57
2023-05-04T20:31:13.540Z,13.52
2023-05-04T20:33:57.765Z,13.46
2023-05-04T20:36:40.697Z,13.41
2023-05-04T20:39:24.558Z,13.39
2023-05-04T20:42:08.783Z,13.32
2023-05-04T20:44:51.701Z,13.32
2023-05-04T20:47:35.822Z,13.27
2023-05-04T20:50:20.552Z,13.26
2023-05-04T20:53:03.457Z,13.23
2023-05-04T20:55:46.464Z,13.21
2023-05-04T20:58:29.555Z,13.20
2023-05-04T21:01:12.478Z,13.18
2023-05-04T21:03:55.579Z,13.16
2023-05-04T21:06:39.862Z,13.13
2023-05-04T21:09:23.029Z,13.12
2023-05-04T21:12:06.334Z,13.10
2023-05-04T21:14:49.396Z,13.09
2023-05-04T21:17:32.353Z,13.07
2023-05-04T21:20:15.249Z,13.01
2023-05-04T21:22:59.593Z,12.99
2023-05-04T21:25:42.458Z,12.95
2023-05-04T21:28:25.583Z,12.92
2023-05-04T21:31:09.835Z,12.91
2023-05-04T21:33:52.767Z,12.87
2023-05-04T21:36:35.946Z,12.87
2023-05-04T21:39:21.805Z,12.82
2023-05-04T21:42:05.057Z,12.78
2023-05-04T21:44:48.091Z,12.73
2023-05-04T21:47:31.167Z,12.69
2023-05-04T21:50:14.163Z,12.66
2023-05-04T21:52:57.108Z,12.62
2023-05-04T21:55:41.714Z,12.58
2023-05-04T21:58:24.621Z,12.54
2023-05-04T22:01:08.004Z,12.53
2023-05-04T22:03:52.850Z,12.51
2023-05-04T22:06:36.252Z,12.46
2023-05-04T22:09:19.502Z,12.43
2023-05-04T22:12:03.942Z,12.40
2023-05-04T22:14:47.530Z,12.37
2023-05-04T22:17:30.528Z,12.31
2023-05-04T22:20:14.329Z,12.28
2023-05-04T22:22:57.253Z,12.24
2023-05-04T22:25:40.742Z,12.23
2023-05-04T22:28:25.272Z,12.21
2023-05-04T22:31:08.221Z,12.18
2023-05-04T22:33:51.177Z,12.15
2023-05-04T22:36:34.147Z,12.15
2023-05-04T22:39:17.085Z,12.16
2023-05-04T22:42:00.048Z,12.15
2023-05-04T22:44:44.392Z,12.13
2023-05-04T22:47:27.341Z,12.10
2023-05-04T22:50:11.194Z,12.07
2023-05-04T22:52:54.146Z,12.03
2023-05-04T22:55:37.364Z,12.02
2023-05-04T22:58:20.297Z,12.00
2023-05-04T23:01:10.195Z,11.96
2023-05-04T23:03:53.451Z,11.91
2023-05-04T23:06:38.552Z,11.89
2023-05-04T23:09:21.551Z,11.84
2023-05-04T23:12:04.603Z,11.78
2023-05-04T23:14:51.365Z,11.79
2023-05-04T23:17:38.347Z,11.77
2023-05-04T23:20:21.624Z,11.74
2023-05-04T23:23:04.568Z,11.72
2023-05-04T23:25:47.611Z,11.70
2023-05-04T23:28:30.487Z,11.65
2023-05-04T23:31:13.471Z,11.63
2023-05-04T23:33:57.814Z,11.60
2023-05-04T23:36:40.816Z,11.59
2023-05-04T23:39:24.069Z,11.55
2023-05-04T23:42:07.278Z,11.52
2023-05-04T23:44:50.181Z,11.53
2023-05-04T23:47:33.135Z,11.50
2023-05-04T23:50:18.082Z,11.50
2023-05-04T23:53:01.146Z,11.47
2023-05-04T23:55:44.074Z,11.49
2023-05-04T23:58:27.380Z,11.50
